METAR Data
IDs: Format: Raw Decoded Include TAF

Data at: 2346 UTC 25 Oct 2021

PAKW 242353Z AUTO 01003KT 10SM -RA CLR 09/02 A2903 RMK AO2 SLP832 P0000 60000 T00940017 10117 20067 56017 TSNO $